Data for 12/14/2006

Time Sea-Level Adjusted Pressure Absolute Pressure Temperature Relative Humidity Dew Point   
(mb) (inHg) (mb) (inHg) (C) (F) (%) (C) (F)
00:05 1012 29.88 842 24.86 3.6 38.5 57 -4.2 24.4
00:10 1012 29.88 842 24.86 3.7 38.7 56 -4.2 24.4
00:15 1012 29.88 842 24.86 3.7 38.7 57 -4 24.7
00:20 1012 29.88 842 24.86 3.7 38.6 58 -3.8 25.1
00:25 1012 29.88 841 24.83 3.7 38.7 58 -3.8 25.1
00:30 1012 29.88 841 24.83 3.7 38.7 58 -3.9 25
00:35 1012 29.88 841 24.83 3.8 38.8 58 -3.8 25.1
00:40 1012 29.88 841 24.83 3.8 38.8 58 -3.7 25.3
00:45 1012 29.88 841 24.83 3.9 39 58 -3.5 25.7
00:50 1012 29.88 841 24.83 3.9 39.1 58 -3.5 25.6
00:55 1012 29.88 841 24.83 3.9 39 58 -3.7 25.3
01:00 1012 29.88 841 24.83 3.9 39.1 56 -3.9 24.9
01:05 1012 29.88 841 24.83 4.1 39.4 55 -4.2 24.5
01:10 1012 29.88 841 24.83 4.2 39.6 55 -4.1 24.7
01:15 1012 29.88 841 24.83 4.2 39.6 55 -3.9 24.9
01:20 1012 29.88 841 24.83 4.3 39.7 56 -3.8 25.2
01:25 1012 29.88 841 24.83 4.2 39.6 56 -3.8 25.1
01:30 1012 29.88 841 24.83 4.3 39.7 55 -3.9 25
01:35 1012 29.88 841 24.83 4.3 39.7 55 -3.9 24.9
01:40 1012 29.88 841 24.83 4.3 39.7 55 -4 24.7
01:45 1011 29.85 841 24.83 4.3 39.7 54 -4.2 24.4
01:50 1011 29.85 840 24.81 4.2 39.6 54 -4.3 24.2
01:55 1011 29.85 840 24.81 4.2 39.6 53 -4.4 24.1
02:00 1011 29.85 841 24.83 4.2 39.5 54 -4.2 24.4
02:05 1011 29.85 841 24.83 4.1 39.3 54 -4.3 24.2
02:10 1012 29.88 841 24.83 4.1 39.4 54 -4.3 24.3
02:15 1012 29.88 841 24.83 4 39.3 53 -4.6 23.7
02:20 1012 29.88 841 24.83 4.1 39.4 53 -4.5 23.9
02:25 1012 29.88 841 24.83 4.1 39.4 53 -4.6 23.8
02:30 1012 29.88 841 24.83 4.2 39.5 52 -4.8 23.3
02:35 1012 29.88 841 24.83 4.1 39.4 52 -4.8 23.4
02:40 1012 29.88 841 24.83 4.1 39.3 52 -4.8 23.3
02:45 1012 29.88 841 24.83 4 39.3 53 -4.7 23.6
02:50 1012 29.88 841 24.83 4 39.2 53 -4.6 23.7
02:55 1012 29.88 841 24.83 4 39.2 53 -4.8 23.4
03:00 1012 29.88 841 24.83 4 39.2 53 -4.8 23.3
03:05 1012 29.88 841 24.83 4 39.2 52 -5 23.1
03:10 1012 29.88 841 24.83 3.9 39.1 52 -5.2 22.7
03:15 1011 29.85 841 24.83 4 39.2 52 -5.1 22.8
03:20 1011 29.85 840 24.81 3.9 39.1 52 -5 23
03:25 1011 29.85 840 24.81 3.9 38.9 52 -5 23
03:30 1011 29.85 840 24.81 3.9 39 53 -4.9 23.1
03:35 1011 29.85 840 24.81 3.9 39 53 -4.9 23.2
03:40 1011 29.85 840 24.81 3.9 39 53 -4.9 23.3
03:45 1011 29.85 840 24.81 3.9 39 53 -4.9 23.2
03:50 1011 29.85 840 24.81 3.9 39 53 -4.9 23.2
03:55 1012 29.88 841 24.83 3.9 39.1 52 -5.2 22.7
04:00 1012 29.88 841 24.83 4.1 39.4 51 -5 22.9
04:05 1012 29.88 841 24.83 4 39.3 52 -5 23
04:10 1012 29.88 841 24.83 4 39.2 52 -4.9 23.1
04:15 1012 29.88 842 24.86 4 39.1 52 -5 23
04:20 1012 29.88 842 24.86 4.1 39.3 52 -5 23.1
04:25 1012 29.88 841 24.83 4.2 39.6 52 -4.7 23.6
04:30 1012 29.88 841 24.83 4.2 39.6 52 -4.8 23.3
04:35 1012 29.88 841 24.83 4.2 39.6 53 -4.5 23.9
04:40 1012 29.88 841 24.83 4.1 39.4 53 -4.6 23.8
04:45 1012 29.88 841 24.83 4.2 39.5 54 -4.3 24.2
04:50 1012 29.88 841 24.83 4.1 39.4 54 -4.3 24.3
04:55 1012 29.88 841 24.83 4 39.2 54 -4.4 24.1
05:00 1012 29.88 841 24.83 4 39.1 54 -4.4 24.1
05:05 1012 29.88 841 24.83 3.9 39 55 -4.4 24.1
05:10 1012 29.88 841 24.83 3.8 38.9 55 -4.3 24.2
05:15 1012 29.88 841 24.83 3.7 38.7 55 -4.4 24
05:20 1012 29.88 842 24.86 3.7 38.7 55 -4.5 24
05:25 1012 29.88 842 24.86 3.7 38.7 55 -4.4 24
05:30 1012 29.88 842 24.86 3.7 38.6 56 -4.3 24.2
05:35 1012 29.88 842 24.86 3.7 38.6 56 -4.4 24.1
05:40 1012 29.88 842 24.86 3.6 38.4 56 -4.3 24.3
05:45 1013 29.91 842 24.86 3.5 38.2 57 -4.3 24.2
05:50 1013 29.91 842 24.86 3.2 37.8 59 -4 24.8
05:55 1013 29.91 842 24.86 2.6 36.7 61 -4.1 24.7
06:00 1013 29.91 842 24.86 2.3 36.1 63 -4.1 24.6
06:05 1012 29.88 842 24.86 2 35.6 64 -4.1 24.5
06:10 1013 29.91 842 24.86 1.9 35.4 64 -4.1 24.5
06:15 1013 29.91 842 24.86 1.9 35.4 65 -4.1 24.6
06:20 1013 29.91 842 24.86 1.9 35.3 65 -4.1 24.6
06:25 1012 29.88 842 24.86 1.8 35.2 65 -4.1 24.6
06:30 1012 29.88 842 24.86 1.8 35.2 65 -4.1 24.7
06:35 1013 29.91 842 24.86 1.8 35.2 65 -4.1 24.7
06:40 1013 29.91 842 24.86 1.7 35.1 66 -4 24.8
06:45 1013 29.91 842 24.86 1.8 35.2 65 -4.1 24.5
06:50 1013 29.91 842 24.86 1.9 35.4 64 -4.1 24.6
06:55 1013 29.91 842 24.86 2.1 35.7 63 -4.3 24.3
07:00 1013 29.91 842 24.86 2.3 36.1 60 -4.7 23.5
07:05 1013 29.91 843 24.89 2.8 37.1 59 -4.4 24
07:10 1013 29.91 843 24.89 2.8 37 58 -4.7 23.6
07:15 1014 29.94 843 24.89 2.8 37.1 58 -4.6 23.8
07:20 1014 29.94 843 24.89 2.9 37.3 54 -5.4 22.3
07:25 1014 29.94 843 24.89 3 37.3 58 -4.5 23.8
07:30 1013 29.91 843 24.89 2.6 36.6 57 -5.1 22.8
07:35 1013 29.91 843 24.89 2.6 36.7 57 -5.2 22.7
07:40 1013 29.91 843 24.89 2.6 36.6 56 -5.3 22.5
07:45 1013 29.91 842 24.86 2.7 36.9 54 -5.7 21.8
07:50 1013 29.91 842 24.86 3.1 37.6 53 -5.6 21.8
07:55 1013 29.91 842 24.86 3.3 38 53 -5.5 22.1
08:00 1013 29.91 842 24.86 3.2 37.8 53 -5.4 22.4
08:05 1013 29.91 842 24.86 3.2 37.8 52 -5.6 22
08:10 1013 29.91 842 24.86 3.3 37.9 53 -5.5 22.1
08:15 1013 29.91 842 24.86 3.1 37.5 54 -5.4 22.3
08:20 1013 29.91 842 24.86 2.5 36.6 57 -5.2 22.6
08:25 1013 29.91 842 24.86 1.9 35.5 59 -5.2 22.6
08:30 1013 29.91 842 24.86 1.7 35.1 59 -5.4 22.3
08:35 1013 29.91 842 24.86 2.4 36.4 56 -5.5 22.1
08:40 1013 29.91 842 24.86 2.7 36.9 55 -5.4 22.3
08:45 1013 29.91 842 24.86 2.8 37.1 55 -5.3 22.5
08:50 1013 29.91 842 24.86 2.6 36.6 56 -5.2 22.6
08:55 1013 29.91 843 24.89 2.7 36.9 55 -5.4 22.3
09:00 1013 29.91 843 24.89 2.8 37 55 -5.3 22.4
09:05 1013 29.91 843 24.89 3.2 37.8 54 -5.3 22.5
09:10 1013 29.91 843 24.89 3.2 37.8 54 -5.3 22.5
09:15 1013 29.91 842 24.86 3.2 37.7 54 -5.2 22.6
09:20 1013 29.91 842 24.86 3 37.5 54 -5.4 22.3
09:25 1013 29.91 842 24.86 3.1 37.6 54 -5.4 22.4
09:30 1013 29.91 842 24.86 3.1 37.6 54 -5.3 22.4
09:35 1013 29.91 842 24.86 3.3 37.9 53 -5.5 22.2
09:40 1013 29.91 842 24.86 3.6 38.5 52 -5.4 22.2
09:45 1013 29.91 842 24.86 3.8 38.9 51 -5.5 22.1
09:50 1013 29.91 843 24.89 3.9 39 51 -5.3 22.5
09:55 1014 29.94 843 24.89 3.7 38.6 54 -4.9 23.2
10:00 1014 29.94 843 24.89 3.8 38.8 53 -5 23
10:05 1014 29.94 843 24.89 3.8 38.9 52 -5 23
10:10 1014 29.94 843 24.89 3.9 39 53 -4.9 23.2
10:15 1014 29.94 843 24.89 3.6 38.4 54 -4.8 23.3
10:20 1014 29.94 843 24.89 3.4 38 55 -4.9 23.3
10:25 1014 29.94 843 24.89 3.4 38 56 -4.7 23.6
10:30 1014 29.94 843 24.89 3.2 37.8 56 -4.8 23.3
10:35 1014 29.94 843 24.89 3.5 38.4 52 -5.4 22.2
10:40 1014 29.94 843 24.89 4.4 40 47 -5.9 21.3
10:45 1014 29.94 843 24.89 5.1 41.2 43 -6.5 20.4
10:50 1014 29.94 843 24.89 5.5 41.9 43 -6.1 21
10:55 1014 29.94 843 24.89 5.5 41.9 44 -5.9 21.3
11:00 1014 29.94 843 24.89 5.5 41.9 43 -6.1 21.1
11:05 1014 29.94 843 24.89 5.5 41.9 44 -5.8 21.5
11:10 1014 29.94 843 24.89 5.5 41.9 43 -6 21.2
11:15 1014 29.94 843 24.89 5.6 42.1 43 -5.9 21.4
11:20 1014 29.94 843 24.89 5.6 42.1 43 -6 21.2
11:25 1014 29.94 843 24.89 5.6 42 42 -6.2 20.8
11:30 1014 29.94 843 24.89 5.6 42.1 41 -6.5 20.4
11:35 1014 29.94 843 24.89 5.7 42.3 42 -6.2 20.8
11:40 1014 29.94 843 24.89 5.7 42.2 42 -6.3 20.7
11:45 1014 29.94 843 24.89 5.7 42.3 43 -6 21.2
11:50 1013 29.91 843 24.89 5.8 42.4 41 -6.4 20.4
11:55 1013 29.91 843 24.89 5.9 42.6 40 -6.6 20.1
12:00 1013 29.91 843 24.89 5.9 42.7 42 -6.1 21
12:05 1013 29.91 843 24.89 5.9 42.6 42 -6.2 20.9
12:10 1013 29.91 843 24.89 5.9 42.7 41 -6.3 20.6
12:15 1013 29.91 843 24.89 6 42.8 42 -6.1 21.1
12:20 1013 29.91 843 24.89 5.9 42.7 41 -6.3 20.6
12:25 1013 29.91 843 24.89 6 42.7 41 -6.2 20.9
12:30 1013 29.91 842 24.86 6 42.8 42 -6 21.1
12:35 1013 29.91 842 24.86 6 42.9 42 -5.8 21.6
12:40 1013 29.91 842 24.86 6.1 42.9 43 -5.7 21.8
12:45 1013 29.91 842 24.86 6.1 43 44 -5.4 22.3
12:50 1013 29.91 842 24.86 6.2 43.1 44 -5.2 22.6
12:55 1013 29.91 842 24.86 6.1 43 45 -5.1 22.9
13:00 1013 29.91 842 24.86 6.1 42.9 44 -5.2 22.7
13:05 1013 29.91 842 24.86 6 42.8 45 -5.1 22.9
13:10 1013 29.91 842 24.86 5.9 42.6 45 -5.2 22.6
13:15 1013 29.91 842 24.86 5.9 42.7 43 -5.6 21.9
13:20 1013 29.91 842 24.86 6 42.8 43 -5.6 21.9
13:25 1013 29.91 842 24.86 6 42.8 41 -6.2 20.8
13:30 1012 29.88 842 24.86 6.3 43.3 39 -6.5 20.2
13:35 1012 29.88 842 24.86 6.5 43.8 41 -5.9 21.4
13:40 1012 29.88 842 24.86 6.4 43.5 43 -5.4 22.3
13:45 1012 29.88 842 24.86 6.1 42.9 43 -5.7 21.8
13:50 1012 29.88 842 24.86 6 42.8 44 -5.4 22.3
13:55 1012 29.88 842 24.86 5.8 42.4 46 -5.1 22.9
14:00 1012 29.88 841 24.83 5.7 42.2 43 -6.1 21.1
14:05 1012 29.88 841 24.83 6 42.8 44 -5.5 22.2
14:10 1012 29.88 841 24.83 5.9 42.6 44 -5.4 22.3
14:15 1012 29.88 841 24.83 5.8 42.4 46 -5.1 22.9
14:20 1012 29.88 841 24.83 5.9 42.7 46 -4.8 23.3
14:25 1012 29.88 841 24.83 6.2 43.2 44 -5 23
14:30 1012 29.88 841 24.83 6.6 43.9 44 -4.9 23.2
14:35 1012 29.88 841 24.83 6.5 43.7 48 -3.7 25.3
14:40 1012 29.88 841 24.83 5.6 42 56 -2.5 27.5
14:45 1012 29.88 841 24.83 5.1 41.3 58 -2.5 27.5
14:50 1011 29.85 841 24.83 5 41 58 -2.5 27.4
14:55 1011 29.85 841 24.83 5 41 59 -2.3 27.9
15:00 1011 29.85 841 24.83 5 40.9 59 -2.3 27.9
15:05 1011 29.85 840 24.81 4.9 40.9 59 -2.3 27.8
15:10 1011 29.85 840 24.81 5 41 59 -2.3 27.9
15:15 1011 29.85 840 24.81 4.9 40.9 60 -2.1 28.2
15:20 1011 29.85 841 24.83 5 41 60 -2.1 28.2
15:25 1011 29.85 840 24.81 4.9 40.9 60 -2.3 27.9
15:30 1011 29.85 840 24.81 5 41 59 -2.4 27.8
15:35 1011 29.85 840 24.81 5.1 41.2 59 -2.3 27.9
15:40 1011 29.85 840 24.81 5.2 41.4 59 -2.2 28
15:45 1011 29.85 840 24.81 5.1 41.2 60 -2 28.4
15:50 1011 29.85 841 24.83 4.9 40.8 61 -1.9 28.5
15:55 1011 29.85 841 24.83 4.8 40.6 62 -1.9 28.5
16:00 1011 29.85 841 24.83 4.8 40.6 62 -1.9 28.5
16:05 1011 29.85 840 24.81 4.7 40.5 61 -2 28.3
16:10 1011 29.85 840 24.81 4.8 40.6 61 -2.1 28.2
16:15 1011 29.85 840 24.81 4.8 40.6 62 -1.8 28.7
16:20 1011 29.85 840 24.81 4.6 40.3 64 -1.6 29.1
16:25 1011 29.85 840 24.81 4.4 40 65 -1.5 29.3
16:30 1011 29.85 840 24.81 4.2 39.6 66 -1.5 29.3
16:35 1011 29.85 840 24.81 4.2 39.5 67 -1.5 29.3
16:40 1011 29.85 840 24.81 4.1 39.4 67 -1.5 29.4
16:45 1011 29.85 840 24.81 4.1 39.4 67 -1.4 29.4
16:50 1011 29.85 840 24.81 4 39.3 67 -1.5 29.3
16:55 1011 29.85 840 24.81 4.1 39.3 67 -1.4 29.4
17:00 1011 29.85 840 24.81 4.1 39.3 67 -1.5 29.4
17:05 1011 29.85 840 24.81 4 39.3 67 -1.5 29.3
17:10 1011 29.85 840 24.81 4 39.2 67 -1.6 29.2
17:15 1011 29.85 840 24.81 4.2 39.5 66 -1.6 29.1
17:20 1011 29.85 840 24.81 4.3 39.7 68 -1.2 29.9
17:25 1011 29.85 840 24.81 4.3 39.7 69 -0.9 30.4
17:30 1011 29.85 840 24.81 4.1 39.3 72 -0.6 30.9
17:35 1011 29.85 840 24.81 3.8 38.8 74 -0.3 31.4
17:40 1011 29.85 840 24.81 3.7 38.7 76 -0.1 31.9
17:45 1011 29.85 840 24.81 3.8 38.9 77 0.1 32.2
17:50 1011 29.85 840 24.81 3.8 38.9 77 0.2 32.3
17:55 1011 29.85 840 24.81 3.7 38.7 79 0.4 32.8
18:00 1011 29.85 840 24.81 3.6 38.5 80 0.5 32.9
18:05 1010 29.83 840 24.81 3.6 38.4 81 0.5 33
18:10 1010 29.83 839 24.78 3.6 38.5 81 0.7 33.2
18:15 1010 29.83 839 24.78 3.5 38.4 82 0.8 33.4
18:20 1010 29.83 839 24.78 3.5 38.3 83 0.9 33.6
18:25 1010 29.83 839 24.78 3.5 38.2 84 1 33.9
18:30 1010 29.83 839 24.78 3.4 38.2 85 1.1 34.1
18:35 1010 29.83 839 24.78 3.4 38.2 85 1.2 34.1
18:40 1010 29.83 839 24.78 3.4 38.1 85 1.2 34.1
18:45 1010 29.83 839 24.78 3.4 38 85 1.1 33.9
18:50 1010 29.83 839 24.78 3.3 37.9 85 1 33.8
18:55 1010 29.83 839 24.78 3.2 37.8 85 0.9 33.7
19:00 1010 29.83 839 24.78 3.3 37.9 85 1 33.8
19:05 1009 29.8 839 24.78 3.2 37.8 85 0.9 33.6
19:10 1009 29.8 838 24.75 3.3 37.9 84 0.9 33.5
19:15 1009 29.8 838 24.75 3.3 37.9 84 0.8 33.4
19:20 1009 29.8 838 24.75 3.3 38 84 0.8 33.5
19:25 1009 29.8 838 24.75 3.4 38.1 83 0.7 33.3
19:30 1009 29.8 838 24.75 3.5 38.3 82 0.7 33.3
19:35 1009 29.8 838 24.75 3.5 38.4 82 0.8 33.4
19:40 1009 29.8 838 24.75 3.7 38.6 81 0.7 33.2
19:45 1009 29.8 838 24.75 3.7 38.7 81 0.7 33.3
19:50 1009 29.8 838 24.75 3.8 38.8 80 0.7 33.2
19:55 1009 29.8 838 24.75 3.9 39 80 0.7 33.2
20:00 1009 29.8 838 24.75 4 39.1 79 0.7 33.3
20:05 1009 29.8 838 24.75 4 39.1 80 0.8 33.4
20:10 1009 29.8 838 24.75 3.9 39 80 0.7 33.3
20:15 1009 29.8 838 24.75 3.9 39 80 0.8 33.5
20:20 1009 29.8 838 24.75 3.8 38.8 81 0.8 33.5
20:25 1009 29.8 838 24.75 3.7 38.7 81 0.8 33.4
20:30 1009 29.8 838 24.75 3.8 38.8 81 0.8 33.4
20:35 1009 29.8 838 24.75 3.8 38.9 80 0.7 33.3
20:40 1009 29.8 838 24.75 3.9 39.1 79 0.6 33.1
20:45 1009 29.8 838 24.75 4.1 39.4 79 0.7 33.3
20:50 1008 29.77 838 24.75 4.3 39.7 77 0.7 33.2
20:55 1008 29.77 837 24.72 4.5 40.2 76 0.6 33.1
21:00 1008 29.77 837 24.72 4.3 39.8 80 1.1 34
21:05 1008 29.77 837 24.72 3.9 39.1 80 0.9 33.6
21:10 1008 29.77 837 24.72 4.2 39.5 78 0.7 33.2
21:15 1008 29.77 837 24.72 4.3 39.7 78 0.8 33.5
21:20 1008 29.77 837 24.72 4.2 39.6 78 0.7 33.3
21:25 1008 29.77 837 24.72 4.3 39.8 78 0.7 33.3
21:30 1008 29.77 837 24.72 4.4 39.8 77 0.7 33.2
21:35 1008 29.77 837 24.72 4.5 40.1 77 0.8 33.4
21:40 1008 29.77 837 24.72 4.5 40.1 77 0.8 33.4
21:45 1008 29.77 837 24.72 4.6 40.3 76 0.7 33.3
21:50 1008 29.77 837 24.72 4.7 40.5 75 0.6 33.1
21:55 1008 29.77 837 24.72 4.8 40.6 75 0.7 33.2
22:00 1008 29.77 837 24.72 4.9 40.9 73 0.5 32.9
22:05 1008 29.77 837 24.72 5.1 41.2 72 0.5 32.9
22:10 1007 29.74 837 24.72 5.1 41.2 72 0.5 33
22:15 1007 29.74 836 24.69 5 41 72 0.4 32.8
22:20 1007 29.74 836 24.69 5 41 72 0.4 32.7
22:25 1007 29.74 836 24.69 5.4 41.8 69 0.3 32.5
22:30 1007 29.74 836 24.69 5.4 41.7 69 0.2 32.4
22:35 1007 29.74 836 24.69 5.6 42.1 68 0.2 32.4
22:40 1007 29.74 836 24.69 5.8 42.4 68 0.3 32.5
22:45 1007 29.74 836 24.69 5.7 42.2 69 0.5 32.8
22:50 1007 29.74 836 24.69 5.6 42.1 68 0.2 32.4
22:55 1007 29.74 836 24.69 5.5 41.9 68 0.1 32.1
23:00 1007 29.74 836 24.69 5.8 42.4 68 0.3 32.5
23:05 1006 29.71 836 24.69 5.5 41.9 70 0.6 33.1
23:10 1007 29.74 836 24.69 5.1 41.3 71 0.3 32.6
23:15 1007 29.74 836 24.69 5.8 42.4 62 -0.8 30.5
23:20 1007 29.74 836 24.69 7 44.7 62 0.4 32.6
23:25 1007 29.74 836 24.69 6.3 43.3 66 0.4 32.7
23:30 1007 29.74 836 24.69 5.5 41.8 71 0.5 33
23:35 1007 29.74 836 24.69 5.3 41.6 69 0.1 32.2
23:40 1006 29.71 836 24.69 5.6 42.1 66 -0.2 31.7
23:45 1006 29.71 836 24.69 6.8 44.3 56 -1.3 29.7
23:50 1006 29.71 835 24.66 7.4 45.3 60 0.2 32.3
23:55 1006 29.71 836 24.69 7.7 45.9 54 -1 30.2
24:00 1006 29.71 835 24.66 8.7 47.6 51 -1 30.3